createdAt,value
2019-03-03T00:01:24.104Z,5.40
2019-03-03T00:03:53.744Z,5.40
2019-03-03T00:06:23.409Z,5.30
2019-03-03T00:08:53.041Z,5.30
2019-03-03T00:11:22.636Z,5.30
2019-03-03T00:13:52.299Z,5.30
2019-03-03T00:16:21.922Z,5.20
2019-03-03T00:18:51.511Z,5.30
2019-03-03T00:21:21.134Z,5.20
2019-03-03T00:23:50.799Z,5.20
2019-03-03T00:26:20.484Z,5.20
2019-03-03T00:28:50.147Z,5.30
2019-03-03T00:31:39.017Z,5.20
2019-03-03T00:34:08.603Z,5.20
2019-03-03T00:36:39.905Z,5.20
2019-03-03T00:39:11.164Z,5.10
2019-03-03T00:41:48.140Z,5.10
2019-03-03T00:44:28.523Z,5.20
2019-03-03T00:47:02.639Z,5.20
2019-03-03T00:49:36.587Z,5.20
2019-03-03T00:52:10.535Z,5.20
2019-03-03T00:54:53.965Z,5.20
2019-03-03T00:57:27.781Z,5.20
2019-03-03T01:00:01.929Z,5.20
2019-03-03T01:02:39.211Z,5.30
2019-03-03T01:05:17.707Z,5.30
2019-03-03T01:07:51.773Z,5.40
2019-03-03T01:10:23.075Z,5.20
2019-03-03T01:12:54.403Z,5.20
2019-03-03T01:15:37.942Z,5.20
2019-03-03T01:18:09.736Z,5.20
2019-03-03T01:20:40.996Z,5.10
2019-03-03T01:23:20.943Z,5.10
2019-03-03T01:25:50.568Z,5.10
2019-03-03T01:28:20.160Z,5.20
2019-03-03T01:30:49.777Z,5.20
2019-03-03T01:33:19.398Z,5.10
2019-03-03T01:35:49.029Z,5.10
2019-03-03T01:38:18.621Z,5.10
2019-03-03T01:40:48.286Z,5.00
2019-03-03T01:43:17.903Z,5.00
2019-03-03T01:45:47.562Z,5.00
2019-03-03T01:48:17.253Z,4.90
2019-03-03T01:50:46.912Z,4.80
2019-03-03T01:53:16.602Z,4.80
2019-03-03T01:55:46.199Z,4.80
2019-03-03T01:58:15.819Z,4.80
2019-03-03T02:00:45.682Z,4.80
2019-03-03T02:03:15.275Z,4.60
2019-03-03T02:05:45.031Z,4.60
2019-03-03T02:08:14.966Z,4.60
2019-03-03T02:10:44.554Z,4.60
2019-03-03T02:13:14.315Z,4.60
2019-03-03T02:15:43.907Z,4.50
2019-03-03T02:18:13.519Z,4.40
2019-03-03T02:20:43.113Z,4.20
2019-03-03T02:23:13.066Z,4.20
2019-03-03T02:25:42.819Z,4.20
2019-03-03T02:28:13.534Z,4.20
2019-03-03T02:30:43.432Z,4.30
2019-03-03T02:33:13.052Z,4.40
2019-03-03T02:35:42.674Z,4.30
2019-03-03T02:38:12.335Z,4.30
2019-03-03T02:40:41.961Z,4.30
2019-03-03T02:43:11.552Z,4.20
2019-03-03T02:45:41.234Z,4.30
2019-03-03T02:48:10.856Z,4.30
2019-03-03T02:50:40.449Z,4.20
2019-03-03T02:53:10.060Z,4.20
2019-03-03T02:55:39.681Z,4.20
2019-03-03T02:58:09.270Z,4.20
2019-03-03T03:00:40.600Z,4.30
2019-03-03T03:03:11.835Z,4.30
2019-03-03T03:05:43.166Z,4.30
2019-03-03T03:08:20.349Z,4.30
2019-03-03T03:10:51.654Z,4.30
2019-03-03T03:13:28.716Z,4.20
2019-03-03T03:15:59.944Z,4.20
2019-03-03T03:18:38.120Z,4.20
2019-03-03T03:21:16.225Z,4.10
2019-03-03T03:23:57.320Z,4.10
2019-03-03T03:26:32.283Z,3.90
2019-03-03T03:29:10.704Z,3.80
2019-03-03T03:31:41.927Z,3.60
2019-03-03T03:34:13.191Z,3.40
2019-03-03T03:36:47.140Z,3.20
2019-03-03T03:39:21.510Z,3.20
2019-03-03T03:42:08.784Z,3.20
2019-03-03T03:44:54.999Z,3.20
2019-03-03T03:47:26.236Z,3.10
2019-03-03T03:50:13.596Z,3.20
2019-03-03T03:52:47.687Z,3.20
2019-03-03T03:55:35.391Z,3.30
2019-03-03T03:58:04.909Z,3.30
2019-03-03T04:00:52.170Z,3.10
2019-03-03T04:03:32.318Z,2.90
2019-03-03T04:06:12.739Z,3.00
2019-03-03T04:08:46.854Z,3.10
2019-03-03T04:11:20.645Z,3.10
2019-03-03T04:14:08.096Z,3.00
2019-03-03T04:16:45.050Z,2.90
2019-03-03T04:19:22.217Z,3.00
2019-03-03T04:21:51.574Z,3.10
2019-03-03T04:24:22.825Z,3.00
2019-03-03T04:26:56.658Z,2.90
2019-03-03T04:29:34.807Z,2.90
2019-03-03T04:32:06.114Z,3.00
2019-03-03T04:34:40.320Z,2.90
2019-03-03T04:37:11.557Z,2.80
2019-03-03T04:39:48.898Z,2.80
2019-03-03T04:42:38.307Z,2.80
2019-03-03T04:45:16.126Z,2.70
2019-03-03T04:47:59.683Z,2.60
2019-03-03T04:50:30.939Z,2.40
2019-03-03T04:53:03.155Z,2.10
2019-03-03T04:55:34.386Z,1.90
2019-03-03T04:58:03.785Z,2.00
2019-03-03T05:00:35.015Z,2.10
2019-03-03T05:03:22.620Z,2.20
2019-03-03T05:06:05.996Z,2.20
2019-03-03T05:08:37.230Z,2.10
2019-03-03T05:11:17.614Z,2.10
2019-03-03T05:13:48.849Z,2.20
2019-03-03T05:16:22.664Z,2.30
2019-03-03T05:18:56.704Z,2.20
2019-03-03T05:21:26.324Z,2.30
2019-03-03T05:23:55.917Z,2.20
2019-03-03T05:26:25.542Z,2.00
2019-03-03T05:28:55.134Z,1.70
2019-03-03T05:31:24.765Z,1.60
2019-03-03T05:33:54.442Z,1.60
2019-03-03T05:36:24.062Z,1.70
2019-03-03T05:38:53.657Z,1.80
2019-03-03T05:41:23.272Z,1.80
2019-03-03T05:43:52.866Z,1.80
2019-03-03T05:46:22.504Z,1.80
2019-03-03T05:48:52.098Z,1.80
2019-03-03T05:51:21.693Z,1.80
2019-03-03T05:53:51.310Z,1.80
2019-03-03T05:56:20.922Z,1.70
2019-03-03T05:58:50.518Z,1.70
2019-03-03T06:01:20.121Z,1.70
2019-03-03T06:03:49.740Z,1.80
2019-03-03T06:06:19.333Z,1.80
2019-03-03T06:08:48.950Z,1.90
2019-03-03T06:11:18.619Z,2.00
2019-03-03T06:13:48.219Z,2.00
2019-03-03T06:16:17.845Z,2.00
2019-03-03T06:18:47.469Z,2.00
2019-03-03T06:21:17.065Z,2.00
2019-03-03T06:23:46.683Z,2.00
2019-03-03T06:26:16.275Z,2.20
2019-03-03T06:28:45.930Z,2.40
2019-03-03T06:31:15.519Z,2.40
2019-03-03T06:33:45.111Z,2.40
2019-03-03T06:36:14.727Z,2.30
2019-03-03T06:38:44.326Z,2.40
2019-03-03T06:41:13.947Z,2.50
2019-03-03T06:43:43.564Z,2.50
2019-03-03T06:46:13.186Z,2.60
2019-03-03T06:48:42.813Z,2.70
2019-03-03T06:51:12.414Z,2.70
2019-03-03T06:53:42.038Z,3.00
2019-03-03T06:56:11.671Z,3.10
2019-03-03T06:58:41.269Z,3.20
2019-03-03T07:01:10.933Z,3.40
2019-03-03T07:03:40.555Z,3.50
2019-03-03T07:06:10.147Z,3.60
2019-03-03T07:08:39.786Z,3.80
2019-03-03T07:11:10.094Z,4.00
2019-03-03T07:13:39.853Z,4.20
2019-03-03T07:16:09.472Z,4.50
2019-03-03T07:18:39.068Z,4.50
2019-03-03T07:21:08.680Z,4.80
2019-03-03T07:23:38.299Z,4.90
2019-03-03T07:26:07.892Z,5.00
2019-03-03T07:28:37.514Z,5.20
2019-03-03T07:31:07.165Z,5.50
2019-03-03T07:33:36.786Z,5.70
2019-03-03T07:36:06.443Z,5.80
2019-03-03T07:38:36.070Z,5.90
2019-03-03T07:41:05.727Z,6.10
2019-03-03T07:43:35.313Z,6.30
2019-03-03T07:46:04.998Z,6.50
2019-03-03T07:48:34.635Z,6.70
2019-03-03T07:51:04.364Z,6.80
2019-03-03T07:53:33.950Z,7.00
2019-03-03T07:56:03.567Z,7.40
2019-03-03T07:58:33.157Z,7.50
2019-03-03T08:01:02.800Z,7.70
2019-03-03T08:03:32.393Z,7.90
2019-03-03T08:06:02.187Z,8.20
2019-03-03T08:08:31.779Z,8.30
2019-03-03T08:11:01.388Z,8.50
2019-03-03T08:13:30.981Z,8.70
2019-03-03T08:16:00.601Z,9.00
2019-03-03T08:18:30.187Z,9.20
2019-03-03T08:20:59.786Z,9.50
2019-03-03T08:23:29.412Z,9.70
2019-03-03T08:25:59.018Z,9.90
2019-03-03T08:28:28.619Z,10.10
2019-03-03T08:30:58.249Z,10.40
2019-03-03T08:33:27.876Z,10.60
2019-03-03T08:35:57.471Z,10.80
2019-03-03T08:38:27.105Z,11.00
2019-03-03T08:40:56.702Z,11.30
2019-03-03T08:43:40.303Z,11.60
2019-03-03T08:46:11.549Z,11.50
2019-03-03T08:48:45.295Z,11.50
2019-03-03T08:51:17.853Z,11.40
2019-03-03T08:53:51.971Z,11.30
2019-03-03T08:56:24.309Z,11.10
2019-03-03T08:58:55.579Z,11.10
2019-03-03T09:01:43.099Z,11.20
2019-03-03T09:04:20.203Z,11.30
2019-03-03T09:07:04.483Z,11.50
2019-03-03T09:09:42.549Z,11.60
2019-03-03T09:12:25.640Z,11.80
2019-03-03T09:15:08.973Z,12.00
2019-03-03T09:17:45.850Z,12.10
2019-03-03T09:20:33.055Z,12.10
2019-03-03T09:23:07.000Z,12.30
2019-03-03T09:25:50.338Z,12.40
2019-03-03T09:28:37.581Z,12.50
2019-03-03T09:31:20.889Z,12.50
2019-03-03T09:34:00.947Z,12.50
2019-03-03T09:36:48.599Z,12.70
2019-03-03T09:39:20.863Z,12.80
2019-03-03T09:42:03.982Z,13.10
2019-03-03T09:44:42.346Z,13.10
2019-03-03T09:47:14.233Z,13.30
2019-03-03T09:49:51.248Z,13.60
2019-03-03T09:52:28.321Z,13.80
2019-03-03T09:55:11.492Z,13.90
2019-03-03T09:57:45.317Z,13.90
2019-03-03T10:00:22.665Z,14.10
2019-03-03T10:02:53.927Z,14.10
2019-03-03T10:05:37.415Z,14.00
2019-03-03T10:08:25.346Z,13.90
2019-03-03T10:10:59.442Z,13.80
2019-03-03T10:13:39.887Z,13.80
2019-03-03T10:16:14.380Z,13.80
2019-03-03T10:18:48.993Z,13.80
2019-03-03T10:21:36.586Z,13.80
2019-03-03T10:24:08.194Z,13.80
2019-03-03T10:26:42.380Z,14.00
2019-03-03T10:29:19.359Z,14.10
2019-03-03T10:31:59.822Z,14.40
2019-03-03T10:34:39.963Z,14.50
2019-03-03T10:37:09.426Z,14.60
2019-03-03T10:39:43.515Z,14.60
2019-03-03T10:42:17.597Z,14.60
2019-03-03T10:44:48.830Z,14.50
2019-03-03T10:47:36.311Z,14.50
2019-03-03T10:50:13.526Z,14.60
2019-03-03T10:53:01.003Z,14.60
2019-03-03T10:55:34.962Z,14.60
2019-03-03T10:58:22.538Z,14.30
2019-03-03T11:00:59.594Z,14.30
2019-03-03T11:03:33.804Z,14.30
2019-03-03T11:06:05.237Z,14.40
2019-03-03T11:08:36.470Z,14.50
2019-03-03T11:11:13.748Z,14.40
2019-03-03T11:13:51.561Z,14.30
2019-03-03T11:16:41.389Z,14.60
2019-03-03T11:19:12.662Z,14.90
2019-03-03T11:21:55.977Z,15.20
2019-03-03T11:24:34.016Z,15.40
2019-03-03T11:27:23.415Z,15.40
2019-03-03T11:30:01.507Z,15.50
2019-03-03T11:32:38.375Z,15.50
2019-03-03T11:35:21.877Z,15.50
2019-03-03T11:37:55.968Z,15.40
2019-03-03T11:40:31.334Z,15.30
2019-03-03T11:43:00.726Z,15.30
2019-03-03T11:45:34.766Z,15.30
2019-03-03T11:48:10.305Z,15.30
2019-03-03T11:50:47.728Z,15.30
2019-03-03T11:53:18.960Z,15.50
2019-03-03T11:55:52.991Z,15.70
2019-03-03T11:58:25.424Z,15.90
2019-03-03T12:01:08.881Z,15.90
2019-03-03T12:03:46.137Z,15.90
2019-03-03T12:06:29.539Z,15.70
2019-03-03T12:09:17.036Z,15.80
2019-03-03T12:11:52.092Z,15.90
2019-03-03T12:14:39.972Z,16.00
2019-03-03T12:17:23.190Z,16.10
2019-03-03T12:19:54.494Z,16.10
2019-03-03T12:22:31.465Z,16.30
2019-03-03T12:25:05.344Z,16.30
2019-03-03T12:27:39.054Z,16.00
2019-03-03T12:30:21.487Z,15.90
2019-03-03T12:33:00.129Z,15.80
2019-03-03T12:35:31.462Z,15.60
2019-03-03T12:38:02.695Z,15.60
2019-03-03T12:40:46.044Z,15.60
2019-03-03T12:43:21.235Z,15.60
2019-03-03T12:45:58.572Z,15.60
2019-03-03T12:48:41.881Z,15.80
2019-03-03T12:51:16.801Z,16.10
2019-03-03T12:53:48.035Z,16.30
2019-03-03T12:56:17.475Z,16.50
2019-03-03T12:58:55.661Z,16.60
2019-03-03T13:01:34.048Z,16.60
2019-03-03T13:04:17.228Z,16.70
2019-03-03T13:07:01.424Z,16.80
2019-03-03T13:09:48.975Z,16.80
2019-03-03T13:12:24.386Z,16.80
2019-03-03T13:14:58.096Z,16.90
2019-03-03T13:17:29.365Z,16.90
2019-03-03T13:20:08.040Z,16.90
2019-03-03T13:22:48.147Z,16.90
2019-03-03T13:25:17.576Z,16.80
2019-03-03T13:27:48.829Z,16.80
2019-03-03T13:30:36.805Z,16.60
2019-03-03T13:33:11.960Z,16.60
2019-03-03T13:35:51.847Z,16.60
2019-03-03T13:38:23.693Z,16.60
2019-03-03T13:41:03.837Z,16.50
2019-03-03T13:43:34.380Z,16.40
2019-03-03T13:46:04.315Z,16.50
2019-03-03T13:48:34.076Z,16.50
2019-03-03T13:51:03.737Z,16.60
2019-03-03T13:53:33.459Z,16.70
2019-03-03T13:56:03.195Z,16.80
2019-03-03T13:58:32.789Z,16.90
2019-03-03T14:01:02.549Z,16.80
2019-03-03T14:03:32.250Z,16.70
2019-03-03T14:06:01.880Z,16.60
2019-03-03T14:08:31.515Z,16.50
2019-03-03T14:11:01.107Z,16.40
2019-03-03T14:13:30.771Z,16.50
2019-03-03T14:16:00.463Z,16.50
2019-03-03T14:18:30.089Z,16.40
2019-03-03T14:20:59.834Z,16.40
2019-03-03T14:23:29.565Z,16.40
2019-03-03T14:25:59.202Z,16.30
2019-03-03T14:28:28.959Z,16.30
2019-03-03T14:30:58.554Z,16.40
2019-03-03T14:33:28.178Z,16.40
2019-03-03T14:35:57.795Z,16.30
2019-03-03T14:38:27.390Z,16.20
2019-03-03T14:40:57.077Z,16.10
2019-03-03T14:43:26.679Z,16.10
2019-03-03T14:45:58.000Z,16.10
2019-03-03T14:48:27.817Z,16.20
2019-03-03T14:50:57.506Z,16.20
2019-03-03T14:53:27.166Z,16.30
2019-03-03T14:55:56.855Z,16.30
2019-03-03T14:58:26.519Z,16.30
2019-03-03T15:00:56.203Z,16.30
2019-03-03T15:03:25.819Z,16.30
2019-03-03T15:05:55.511Z,16.20
2019-03-03T15:08:25.237Z,16.20
2019-03-03T15:10:54.970Z,16.10
2019-03-03T15:13:24.560Z,16.00
2019-03-03T15:15:54.258Z,16.00
2019-03-03T15:18:23.993Z,16.00
2019-03-03T15:20:53.615Z,16.00
2019-03-03T15:23:23.243Z,15.90
2019-03-03T15:25:52.909Z,15.90
2019-03-03T15:28:22.531Z,15.80
2019-03-03T15:30:52.215Z,15.80
2019-03-03T15:33:21.835Z,15.80
2019-03-03T15:35:51.995Z,15.70
2019-03-03T15:38:21.618Z,15.70
2019-03-03T15:40:51.349Z,15.60
2019-03-03T15:43:20.971Z,15.60
2019-03-03T15:45:50.572Z,15.60
2019-03-03T15:48:20.267Z,15.50
2019-03-03T15:50:50.139Z,15.40
2019-03-03T15:53:19.802Z,15.40
2019-03-03T15:55:49.479Z,15.40
2019-03-03T15:58:19.102Z,15.30
2019-03-03T16:00:49.374Z,15.30
2019-03-03T16:03:18.996Z,15.20
2019-03-03T16:05:48.763Z,15.20
2019-03-03T16:08:18.376Z,15.20
2019-03-03T16:10:47.973Z,15.10
2019-03-03T16:13:17.604Z,15.00
2019-03-03T16:15:47.313Z,15.00
2019-03-03T16:18:17.043Z,14.90
2019-03-03T16:20:46.704Z,14.90
2019-03-03T16:23:16.391Z,14.80
2019-03-03T16:25:46.053Z,14.70
2019-03-03T16:28:15.673Z,14.60
2019-03-03T16:30:45.270Z,14.60
2019-03-03T16:33:20.599Z,14.50
2019-03-03T16:35:46.352Z,14.40
2019-03-03T16:38:15.976Z,14.30
2019-03-03T16:40:46.203Z,14.30
2019-03-03T16:43:16.040Z,14.30
2019-03-03T16:45:45.640Z,14.20
2019-03-03T16:48:15.268Z,14.10
2019-03-03T16:50:44.894Z,14.10
2019-03-03T16:53:14.495Z,14.00
2019-03-03T16:55:44.193Z,14.00
2019-03-03T16:58:13.804Z,14.00
2019-03-03T17:00:43.665Z,14.00
2019-03-03T17:03:13.334Z,14.00
2019-03-03T17:05:42.957Z,13.90
2019-03-03T17:08:12.647Z,13.80
2019-03-03T17:10:42.316Z,13.70
2019-03-03T17:13:11.935Z,13.60
2019-03-03T17:15:41.534Z,13.50
2019-03-03T17:18:11.162Z,13.40
2019-03-03T17:20:40.755Z,13.10
2019-03-03T17:23:10.385Z,12.90
2019-03-03T17:25:39.985Z,12.60
2019-03-03T17:28:09.610Z,12.40
2019-03-03T17:30:39.225Z,12.10
2019-03-03T17:33:08.988Z,12.00
2019-03-03T17:35:38.593Z,11.80
2019-03-03T17:38:08.219Z,11.60
2019-03-03T17:40:37.845Z,11.50
2019-03-03T17:43:07.474Z,11.40
2019-03-03T17:45:37.069Z,11.20
2019-03-03T17:48:06.762Z,11.20
2019-03-03T17:50:36.460Z,11.10
2019-03-03T17:53:06.133Z,11.00
2019-03-03T17:55:35.752Z,10.90
2019-03-03T17:58:05.603Z,10.90
2019-03-03T18:00:46.167Z,10.80
2019-03-03T18:03:15.863Z,10.70
2019-03-03T18:05:45.659Z,10.70
2019-03-03T18:08:15.247Z,10.60
2019-03-03T18:10:45.011Z,10.60
2019-03-03T18:13:14.604Z,10.60
2019-03-03T18:15:44.292Z,10.40
2019-03-03T18:18:13.922Z,10.40
2019-03-03T18:20:43.519Z,10.40
2019-03-03T18:23:13.140Z,10.30
2019-03-03T18:25:42.768Z,10.20
2019-03-03T18:28:12.397Z,10.10
2019-03-03T18:30:42.063Z,10.00
2019-03-03T18:33:11.656Z,9.90
2019-03-03T18:35:41.337Z,9.60
2019-03-03T18:38:11.022Z,9.40
2019-03-03T18:40:40.631Z,9.30
2019-03-03T18:43:10.250Z,9.20
2019-03-03T18:45:39.910Z,9.40
2019-03-03T18:48:09.595Z,9.50
2019-03-03T18:50:39.254Z,9.60
2019-03-03T18:53:08.939Z,9.60
2019-03-03T18:55:38.595Z,9.60
2019-03-03T18:58:08.286Z,9.40
2019-03-03T19:00:38.089Z,9.40
2019-03-03T19:03:07.809Z,9.20
2019-03-03T19:05:37.479Z,8.90
2019-03-03T19:08:07.195Z,8.50
2019-03-03T19:10:40.439Z,8.20
2019-03-03T19:13:10.025Z,8.20
2019-03-03T19:15:39.712Z,8.20
2019-03-03T19:18:09.306Z,8.10
2019-03-03T19:20:38.998Z,8.20
2019-03-03T19:23:08.722Z,8.50
2019-03-03T19:25:38.345Z,8.70
2019-03-03T19:28:08.029Z,8.80
2019-03-03T19:30:37.612Z,8.90
2019-03-03T19:33:20.959Z,9.00
2019-03-03T19:35:50.855Z,9.00
2019-03-03T19:38:20.536Z,8.90
2019-03-03T19:40:50.387Z,8.90
2019-03-03T19:43:20.119Z,8.90
2019-03-03T19:46:02.706Z,9.00
2019-03-03T19:48:32.297Z,9.00
2019-03-03T19:51:03.332Z,9.00
2019-03-03T19:53:33.195Z,8.90
2019-03-03T19:56:02.998Z,9.00
2019-03-03T19:58:32.706Z,9.00
2019-03-03T20:01:02.504Z,9.10
2019-03-03T20:03:32.194Z,9.10
2019-03-03T20:06:01.878Z,9.10
2019-03-03T20:08:31.462Z,9.00
2019-03-03T20:11:01.152Z,9.00
2019-03-03T20:13:31.179Z,9.00
2019-03-03T20:16:00.871Z,9.00
2019-03-03T20:18:30.673Z,8.70
2019-03-03T20:21:00.360Z,8.70
2019-03-03T20:23:29.963Z,8.80
2019-03-03T20:25:59.566Z,8.80
2019-03-03T20:28:29.255Z,8.90
2019-03-03T20:30:59.115Z,8.80
2019-03-03T20:33:28.731Z,8.70
2019-03-03T20:35:58.349Z,8.30
2019-03-03T20:38:27.938Z,8.10
2019-03-03T20:40:57.566Z,8.00
2019-03-03T20:43:27.162Z,7.90
2019-03-03T20:45:56.750Z,8.10
2019-03-03T20:48:26.367Z,8.00
2019-03-03T20:50:55.955Z,8.10
2019-03-03T20:53:25.578Z,8.30
2019-03-03T20:55:55.201Z,8.30
2019-03-03T20:58:24.817Z,8.50
2019-03-03T21:00:54.432Z,8.50
2019-03-03T21:03:24.050Z,8.70
2019-03-03T21:05:53.669Z,8.70
2019-03-03T21:08:23.261Z,8.60
2019-03-03T21:10:52.849Z,8.60
2019-03-03T21:13:22.468Z,8.60
2019-03-03T21:15:52.154Z,8.60
2019-03-03T21:18:21.742Z,8.60
2019-03-03T21:20:51.356Z,8.60
2019-03-03T21:23:20.942Z,8.40
2019-03-03T21:25:50.626Z,8.10
2019-03-03T21:28:20.219Z,8.00
2019-03-03T21:30:49.849Z,7.90
2019-03-03T21:33:19.444Z,8.10
2019-03-03T21:35:49.072Z,8.30
2019-03-03T21:38:18.667Z,8.40
2019-03-03T21:40:48.322Z,8.50
2019-03-03T21:43:17.923Z,8.50
2019-03-03T21:45:47.537Z,8.50
2019-03-03T21:48:17.152Z,8.50
2019-03-03T21:50:46.742Z,8.50
2019-03-03T21:53:16.383Z,8.50
2019-03-03T21:55:45.934Z,8.50
2019-03-03T21:58:15.623Z,8.20
2019-03-03T22:00:45.273Z,7.60
2019-03-03T22:03:14.890Z,7.20
2019-03-03T22:05:44.478Z,7.20
2019-03-03T22:08:14.095Z,7.00
2019-03-03T22:10:43.682Z,7.00
2019-03-03T22:13:13.850Z,7.00
2019-03-03T22:15:44.207Z,6.90
2019-03-03T22:18:13.829Z,6.90
2019-03-03T22:20:43.426Z,6.80
2019-03-03T22:23:13.048Z,7.00
2019-03-03T22:25:42.667Z,7.10
2019-03-03T22:28:12.284Z,7.30
2019-03-03T22:30:41.948Z,7.50
2019-03-03T22:33:11.567Z,7.80
2019-03-03T22:35:41.153Z,8.00
2019-03-03T22:38:10.766Z,8.20
2019-03-03T22:40:40.378Z,8.10
2019-03-03T22:43:09.961Z,8.10
2019-03-03T22:45:39.664Z,8.10
2019-03-03T22:48:09.270Z,8.20
2019-03-03T22:50:38.853Z,8.10
2019-03-03T22:53:08.471Z,7.80
2019-03-03T22:55:40.394Z,7.50
2019-03-03T22:58:09.725Z,7.40
2019-03-03T23:00:59.606Z,7.40
2019-03-03T23:03:39.828Z,7.40
2019-03-03T23:06:22.877Z,7.20
2019-03-03T23:09:14.977Z,7.20
2019-03-03T23:11:54.933Z,7.30
2019-03-03T23:15:03.753Z,7.30
2019-03-03T23:17:43.733Z,7.30
2019-03-03T23:20:39.329Z,7.50
2019-03-03T23:23:28.748Z,7.60
2019-03-03T23:25:58.354Z,7.60
2019-03-03T23:28:28.002Z,7.70
2019-03-03T23:30:57.613Z,7.70
2019-03-03T23:33:27.346Z,7.70
2019-03-03T23:35:56.958Z,7.70
2019-03-03T23:38:26.550Z,7.80
2019-03-03T23:40:56.179Z,7.80
2019-03-03T23:43:25.909Z,7.50
2019-03-03T23:45:55.495Z,7.00
2019-03-03T23:48:25.179Z,6.80
2019-03-03T23:50:54.769Z,6.70
2019-03-03T23:53:24.382Z,6.40
2019-03-03T23:55:54.034Z,6.40
2019-03-03T23:58:23.655Z,6.10
